Latest Coastal Weather Observations for Lord Howe Island

IDN60701

Issued at 10:51 am EDT Monday 30 March 2015 (issued every 10 minutes, with the page automatically refreshed every 10 minutes)

About coastal observations | Map of coastal stations | Coastal observations for NSW | Marine services | Other Formats
Station Details ID: 200839 Name: LORD HOWE ISLAND AERO Lat: -31.54 Lon: 159.08 Height: 5.0 m
Data from the previous 72 hours. | See also: Recent months at Lord Howe Island
Date/Time
EDT
Temp

°C
Wind Pressure Rain
since 9am
mm
Weather Cloud Vis
km
Sea
Height
m
Swell
Dir
 
Speed
knots
Gust
knots
hPa Trend Height
m
Period
s
Dir
30/10:30am 22.7 E 10 14 1025.7 - 0.0 - Mostly clear 10 - - - -
30/10:00am 22.1 E 10 13 1025.8 - 0.0 - Mostly clear 10 - - - -
30/09:30am 22.1 E 9 11 1025.9 - 0.0 - Mostly clear 10 - - - -
30/09:00am 22.0 E 11 15 1025.6 R 0.0 Fine Mostly cloudy 30 - - - -
30/08:30am 22.2 E 11 14 1025.2 - 0.0 - Mostly clear 10 - - - -
30/08:00am 21.5 E 10 13 1025.0 - 0.0 - Mostly clear 10 - - - -
30/07:30am 21.5 E 7 11 1024.8 - 0.0 - Mostly clear 10 - - - -
30/07:00am 21.1 E 6 12 1024.5 - 0.0 - Mostly clear 10 - - - -
30/06:30am 20.2 ESE 5 11 1024.4 - 0.0 - Mostly clear 10 - - - -
30/06:00am 20.6 ESE 5 10 1024.1 R 0.0 Fine Partly cloudy 30 - - - -
30/05:30am 20.5 SE 5 7 1023.8 - 0.0 - - 10 - - - -
30/05:00am 20.9 SE 6 7 1023.6 - 0.0 - - 10 - - - -
30/04:30am 20.9 SE 6 7 1023.5 - 0.0 - - 10 - - - -
30/04:00am 20.9 SSE 5 7 1023.4 - 0.0 - Partly cloudy 10 - - - -
30/03:30am 21.0 SSE 5 6 1023.6 - 0.0 - Partly cloudy 10 - - - -
30/03:00am 20.6 SE 5 7 1023.7 - 0.0 - Mostly clear 10 - - - -
30/02:30am 20.1 SE 5 5 1023.6 - 0.0 - - 10 - - - -
30/02:00am 20.9 SE 5 6 1023.8 - 0.0 - - 10 - - - -
30/01:30am 21.1 SE 6 8 1023.8 - 0.0 - - 10 - - - -
30/01:00am 19.4 ESE 5 7 1023.9 - 0.0 - - 10 - - - -
30/12:30am 20.2 SE 3 6 1024.1 - 0.0 - - 8 - - - -
30/12:00am 20.9 SSE 2 5 1024.2 - 0.0 - - 10 - - - -
 
Date/Time
EDT
Temp

°C
Wind Pressure Rain
since 9am
mm
Weather Cloud Vis
km
Sea
Height
m
Swell
Dir
 
Speed
knots
Gust
knots
hPa Trend Height
m
Period
s
Dir
29/11:30pm 21.5 SSW 6 9 1024.4 - 0.0 - - 10 - - - -
29/11:00pm 21.4 S 3 7 1024.6 - 0.0 - Partly cloudy 10 - - - -
29/10:30pm 21.5 ESE 5 8 1024.6 - 0.0 - Partly cloudy 10 - - - -
29/10:00pm 21.2 S 4 7 1024.7 - 0.0 - Partly cloudy 10 - - - -
29/09:30pm 21.4 S 4 5 1024.5 - 0.0 - Partly cloudy 10 - - - -
29/09:00pm 21.0 SSE 5 9 1024.2 - 0.0 - - 10 - - - -
29/08:30pm 21.5 SSE 4 10 1024.0 - 0.0 - - 10 - - - -
29/08:00pm 21.4 S 4 7 1023.7 - 0.0 - - 10 - - - -
29/07:30pm 21.4 S 4 7 1023.4 - 0.0 - - 10 - - - -
29/07:00pm 21.3 SE 4 6 1023.1 - 0.0 - - 10 - - - -
29/06:30pm 21.7 SSW 7 10 1022.9 - 0.0 - - 10 - - - -
29/06:00pm 22.3 SSW 7 12 1022.8 - 0.0 - - 10 - - - -
29/05:30pm 22.9 SW 7 11 1022.5 - 0.0 - - 10 - - - -
29/05:00pm 23.4 SW 8 13 1022.2 - 0.0 - - 10 - - - -
29/04:30pm 23.4 SW 8 12 1022.0 - 0.0 - - 10 - - - -
29/04:00pm 23.7 SW 7 12 1021.9 - 0.0 - - 10 - - - -
29/03:30pm 23.9 SW 9 13 1022.2 - 0.0 - - 10 - - - -
29/03:00pm 24.0 SW 9 14 1022.2 R 0.0 Fine Partly cloudy 30 - - - -
29/02:30pm 22.8 SW 8 12 1022.5 - 0.0 - Partly cloudy 10 - - - -
29/02:00pm 24.6 WSW 9 14 1022.6 - 0.0 - Partly cloudy 10 - - - -
29/01:30pm 24.1 SW 9 12 1022.8 - 0.0 - Partly cloudy 10 - - - -
29/01:00pm 24.3 WSW 9 12 1022.9 - 0.0 - Partly cloudy 10 - - - -
29/12:30pm 24.5 WSW 7 10 1023.0 - 0.0 - Mostly clear 10 - - - -
29/12:00pm 24.0 SW 9 12 1023.1 R 0.0 Fine Partly cloudy 30 - - - -
29/11:30am 24.6 SW 9 13 1023.2 - 0.0 - Partly cloudy 10 - - - -
29/11:00am 24.1 WSW 8 10 1023.3 - 0.0 - Partly cloudy 10 - - - -
29/10:30am 24.0 WSW 8 11 1023.3 - 0.0 - Mostly clear 10 - - - -
29/10:00am 23.6 SW 8 12 1023.1 - 0.0 - Mostly clear 10 - - - -
29/09:30am 23.9 SSW 7 11 1023.1 - 0.0 - Mostly clear 10 - - - -
29/09:00am 23.7 SSW 6 10 1022.8 R 0.2 Fine Mostly clear 30 - - - -
29/08:30am 22.7 S 7 8 1022.6 - 0.2 - Mostly clear 10 - - - -
29/08:00am 22.0 SSW 4 7 1022.4 - 0.2 - Mostly clear 10 - - - -
29/07:30am 20.5 W 1 7 1022.1 - 0.2 - Mostly clear 10 - - - -
29/07:00am 20.0 SSE 2 4 1021.8 - 0.2 - Mostly clear 10 - - - -
29/06:30am 19.4 SSW 2 6 1021.5 - 0.2 - Mostly clear 10 - - - -
29/06:00am 19.6 S 2 4 1021.2 R 0.2 Fine Partly cloudy 30 - - - -
29/05:30am 20.8 SE 4 8 1020.9 - 0.2 - Partly cloudy 10 - - - -
29/05:00am 20.1 S 3 6 1020.9 - 0.2 - Partly cloudy 10 - - - -
29/04:30am 20.5 SSE 4 7 1020.6 - 0.2 - Partly cloudy 10 - - - -
29/04:00am 21.1 SSW 7 10 1020.7 - 0.2 - Partly cloudy 10 - - - -
29/03:30am 21.3 SSW 5 9 1020.6 - 0.2 - Partly cloudy 10 - - - -
29/03:00am 20.7 SSW 4 8 1020.7 - 0.2 - Partly cloudy 10 - - - -
29/02:30am 20.7 S 4 7 1020.9 - 0.2 - Partly cloudy 10 - - - -
29/02:00am 20.4 SSE 2 6 1020.8 - 0.2 - Partly cloudy 10 - - - -
29/01:30am 20.5 S 2 5 1021.0 - 0.2 - Partly cloudy 10 - - - -
29/01:00am 20.8 SSE 4 6 1021.1 - 0.2 - - 10 - - - -
29/12:30am 21.4 S 5 9 1021.3 - 0.2 - Partly cloudy 10 - - - -
29/12:00am 21.4 SSW 5 10 1021.3 - 0.2 - Mostly clear 10 - - - -
 
Date/Time
EDT
Temp

°C
Wind Pressure Rain
since 9am
mm
Weather Cloud Vis
km
Sea
Height
m
Swell
Dir
 
Speed
knots
Gust
knots
hPa Trend Height
m
Period
s
Dir
28/11:30pm 21.8 SSW 5 8 1021.4 - 0.2 - Partly cloudy 10 - - - -
28/11:00pm 21.2 SSE 4 7 1021.5 - 0.2 - Partly cloudy 10 - - - -
28/10:30pm 20.8 SW 2 6 1021.6 - 0.2 - Partly cloudy 10 - - - -
28/10:00pm 21.3 S 4 6 1021.8 - 0.2 - - 10 - - - -
28/09:30pm 21.5 SSW 5 8 1021.7 - 0.2 - Partly cloudy 10 - - - -
28/09:00pm 21.9 SSW 6 10 1021.4 - 0.2 - - 10 - - - -
28/08:30pm 21.9 SSW 7 11 1021.1 - 0.2 - Partly cloudy 10 - - - -
28/08:00pm 22.5 SW 9 13 1020.9 - 0.2 - Partly cloudy 10 - - - -
28/07:30pm 22.1 SSW 8 11 1020.6 - 0.2 - - 10 - - - -
28/07:00pm 22.5 SSW 7 12 1020.1 - 0.2 - Partly cloudy 10 - - - -
28/06:30pm 22.8 SW 12 16 1020.0 - 0.2 - Partly cloudy 10 - - - -
28/06:00pm 23.3 WSW 12 17 1019.8 - 0.2 - Cloudy 10 - - - -
28/05:30pm 23.3 SW 9 15 1019.8 - 0.2 - Partly cloudy 10 - - - -
28/05:00pm 23.4 SW 10 14 1019.6 - 0.2 - Partly cloudy 10 - - - -
28/04:30pm 24.2 SW 9 12 1019.4 - 0.2 - Partly cloudy 10 - - - -
28/04:00pm 24.0 SW 9 13 1019.4 - 0.2 - - 10 - - - -
28/03:30pm 24.1 SW 9 15 1019.4 - 0.2 - - 10 - - - -
28/03:00pm 24.3 SW 10 14 1019.5 R 0.2 Fine Mostly clear 30 - - - -
28/02:30pm 23.9 SW 10 13 1019.6 - 0.2 - - 10 - - - -
28/02:00pm 24.4 SW 9 13 1019.7 - 0.2 - - 10 - - - -
28/01:30pm 24.3 SW 10 16 1019.9 - 0.2 - - 10 - - - -
28/01:00pm 24.2 SW 9 13 1020.1 - 0.2 - - 10 - - - -
28/12:30pm 24.1 SW 9 13 1020.3 - 0.2 - - 10 - - - -
28/12:00pm 24.2 SW 9 15 1020.5 - 0.0 - - 10 - - - -
28/11:30am 24.3 SW 9 14 1020.7 - 0.0 - - 10 - - - -
28/11:00am 23.9 SW 9 15 1020.7 - 0.0 - - 10 - - - -
28/10:30am 23.6 SW 10 14 1020.6 - 0.0 - - 10 - - - -
28/10:00am 23.5 SSW 10 16 1020.4 - 0.0 - - 10 - - - -
28/09:30am 23.0 SW 9 17 1020.2 - 0.0 - - 10 - - - -
28/09:00am 22.9 SW 10 13 1020.0 R 1.2 Fine Mostly clear 25 - - - -
28/08:30am 22.8 SW 9 12 1019.6 - 1.2 - - 10 - - - -
28/08:00am 22.4 SW 9 12 1019.4 - 1.2 - - 10 - - - -
28/07:30am 22.1 SW 9 13 1019.0 - 1.2 - - 10 - - - -
28/07:00am 21.9 SW 8 13 1018.7 - 1.2 - Partly cloudy 10 - - - -
28/06:30am 21.8 SSW 7 11 1018.5 - 1.2 - - 10 - - - -
28/06:00am 21.7 SSW 8 13 1018.1 R 1.2 Fine Mostly clear 20 - - - -
28/05:30am 21.9 SW 9 13 1017.8 - 1.2 - - 10 - - - -
28/05:00am 21.7 SW 9 13 1017.7 - 1.2 - Partly cloudy 10 - - - -
28/04:30am 21.8 SW 8 12 1017.5 - 1.2 - Partly cloudy 10 - - - -
28/04:00am 21.9 SW 8 14 1017.4 - 1.2 - Partly cloudy 10 - - - -
28/03:30am 22.0 SW 9 13 1017.3 - 1.2 - Partly cloudy 10 - - - -
28/03:00am 22.3 SW 9 12 1017.3 - 1.2 - Mostly clear 10 - - - -
28/02:30am 22.5 SW 10 15 1017.3 - 1.2 - - 10 - - - -
28/02:00am 22.6 SW 9 13 1017.6 - 1.2 - Partly cloudy 10 - - - -
28/01:30am 22.9 SW 9 15 1017.8 - 1.2 - Partly cloudy 10 - - - -
28/01:00am 23.0 SW 8 12 1017.9 - 1.2 - Partly cloudy 10 - - - -
28/12:30am 22.5 SSW 5 8 1017.9 - 1.2 - Partly cloudy 10 - - - -
28/12:00am 22.8 SSW 7 13 1018.0 - 1.2 - Cloudy 10 - - - -
 
Date/Time
EDT
Temp

°C
Wind Pressure Rain
since 9am
mm
Weather Cloud Vis
km
Sea
Height
m
Swell
Dir
 
Speed
knots
Gust
knots
hPa Trend Height
m
Period
s
Dir
27/11:30pm 22.4 SSW 5 7 1017.9 - 1.2 - Cloudy 10 - - - -
27/11:00pm 22.3 SSW 4 8 1017.9 - 1.2 - Partly cloudy 10 - - - -
27/10:30pm 21.0 CALM 0 0 1018.0 - 1.2 - Partly cloudy 10 - - - -
27/10:00pm 20.4 CALM 0 0 1018.0 - 1.2 - Partly cloudy 10 - - - -
27/09:30pm 21.6 SE 2 4 1018.0 - 1.2 - Partly cloudy 10 - - - -
27/09:00pm 22.0 S 1 5 1018.1 - 1.2 - Cloudy 7 - - - -
27/08:30pm 22.1 SSE 1 4 1017.8 - 1.2 - Partly cloudy 10 - - - -
27/08:00pm 22.5 SSW 6 9 1017.7 - 1.2 - Partly cloudy 10 - - - -
27/07:32pm 22.1 SSW 6 9 1017.4 - 1.2 - Partly cloudy 10 - - - -
27/07:30pm 22.0 SSW 6 9 1017.4 - 1.2 - Partly cloudy 10 - - - -
27/07:22pm 22.1 SW 8 11 1017.4 - 1.2 - Partly cloudy 6 - - - -
27/07:09pm 22.4 WSW 12 17 1017.3 - 1.2 - Partly cloudy 6 - - - -
27/07:00pm 22.7 SW 11 14 1017.2 - 1.0 - Partly cloudy 6 - - - -
27/06:52pm 22.5 W 15 20 1017.1 - 1.0 - Partly cloudy 5 - - - -
27/06:49pm 22.7 W 16 20 1017.1 - 1.0 - Partly cloudy 6 - - - -
27/06:42pm 23.5 SW 9 13 1016.9 - 1.0 - Partly cloudy 10 - - - -
27/06:30pm 23.5 SW 9 12 1016.6 - 1.0 - Partly cloudy 10 - - - -
27/06:28pm 23.5 SW 9 13 1016.6 - 1.0 - Partly cloudy 10 - - - -
27/06:00pm 23.6 SW 12 17 1016.5 - 1.0 - Cloudy 10 - - - -
27/05:36pm 23.3 SW 9 13 1016.4 - 1.0 - Partly cloudy 10 - - - -
27/05:30pm 23.2 SW 10 14 1016.4 - 1.0 - Partly cloudy 10 - - - -
27/05:15pm 23.2 SW 10 15 1016.3 - 1.0 - Partly cloudy 10 - - - -
27/05:12pm 23.1 SW 10 15 1016.3 - 1.0 - Partly cloudy 10 - - - -
27/05:00pm 22.8 WSW 14 20 1016.3 - 1.0 - Partly cloudy 5 - - - -
27/04:52pm 22.9 W 15 19 1016.4 - 0.6 - Cloudy 6 - - - -
27/04:30pm 23.9 SW 13 19 1016.1 - 0.4 - Cloudy 10 - - - -
27/04:11pm 23.6 SW 12 19 1016.2 - 0.4 - Partly cloudy 10 - - - -
27/04:00pm 23.8 WSW 13 17 1016.2 - 0.4 - Partly cloudy 10 - - - -
27/03:30pm 23.6 W 15 20 1016.0 - 0.4 - Partly cloudy 10 - - - -
27/03:14pm 23.8 W 12 16 1016.4 - 0.4 - Partly cloudy 10 - - - -
27/03:00pm 23.3 WNW 11 16 1016.6 F 0.4 Recent precip. Cloudy 10 - - - -
27/02:30pm 24.3 W 13 16 1016.6 - 0.2 - Partly cloudy 10 - - - -
27/02:16pm 24.3 W 12 15 1016.7 - 0.2 - Partly cloudy 10 - - - -
27/02:00pm 24.2 W 8 15 1017.0 - 0.2 - Partly cloudy 10 - - - -
27/01:56pm 24.1 WNW 5 10 1016.6 - 0.2 - Partly cloudy 10 - - - -
27/01:30pm 24.5 W 10 14 1017.1 - 0.0 - Partly cloudy 10 - - - -
27/01:19pm 24.6 W 10 13 1017.3 - 0.0 - Partly cloudy 10 - - - -
27/01:00pm 24.7 NW 6 14 1016.8 - 0.0 - Partly cloudy 10 - - - -
27/12:30pm 24.9 NNE 15 22 1015.3 - 0.0 - Partly cloudy 10 - - - -
27/12:20pm 25.0 NW 6 10 1017.4 - 0.0 - Partly cloudy 10 - - - -
27/12:00pm 25.1 WNW 7 10 1018.5 - 0.0 - Partly cloudy 10 - - - -
27/11:59am 25.2 WNW 7 10 1018.5 - 0.0 - Partly cloudy 10 - - - -
27/11:30am 25.3 WNW 7 10 1018.7 - 0.0 - Partly cloudy 10 - - - -
27/11:00am 25.4 WNW 7 11 1018.4 - 0.0 - Partly cloudy 10 - - - -

Other Formats:

Comma delimited format used in spreadsheet applications
http://www.bom.gov.au/fwo/IDN60701/IDN60701.94995.axf

JavaScript Object Notation format (JSON) in row-major order
http://www.bom.gov.au/fwo/IDN60701/IDN60701.94995.json